createdAt,value
2023-03-15T00:04:09.578Z,13.55
2023-03-15T00:09:12.450Z,17.33
2023-03-15T00:14:15.248Z,22.40
2023-03-15T00:19:19.612Z,12.77
2023-03-15T00:24:24.963Z,11.30
2023-03-15T00:29:27.833Z,32.10
2023-03-15T00:34:33.774Z,11.68
2023-03-15T00:39:38.046Z,17.02
2023-03-15T00:44:44.691Z,9.15
2023-03-15T00:49:50.668Z,13.95
2023-03-15T00:54:54.227Z,11.60
2023-03-15T00:59:58.256Z,16.20
2023-03-15T01:11:24.179Z,13.45
2023-03-15T01:16:30.753Z,17.80
2023-03-15T01:22:00.578Z,18.40
2023-03-15T01:27:04.813Z,11.20
2023-03-15T01:32:08.455Z,11.68
2023-03-15T01:37:14.388Z,13.77
2023-03-15T01:42:20.500Z,14.57
2023-03-15T01:47:25.995Z,19.23
2023-03-15T01:52:34.182Z,40.78
2023-03-15T01:57:44.325Z,17.85
2023-03-15T02:02:51.177Z,25.98
2023-03-15T02:07:59.382Z,23.70
2023-03-15T02:13:09.131Z,18.20
2023-03-15T02:18:12.570Z,20.43
2023-03-15T02:23:18.287Z,23.45
2023-03-15T02:28:23.523Z,17.10
2023-03-15T02:33:29.172Z,24.05
2023-03-15T02:38:31.973Z,18.40
2023-03-15T02:43:37.117Z,16.73
2023-03-15T02:48:42.360Z,30.17
2023-03-15T02:53:45.292Z,41.65
2023-03-15T02:58:49.402Z,22.80
2023-03-15T03:03:52.418Z,25.50
2023-03-15T03:08:55.938Z,25.13
2023-03-15T03:14:00.809Z,24.40
2023-03-15T03:19:04.208Z,25.02
2023-03-15T03:24:08.626Z,26.73
2023-03-15T03:29:16.738Z,22.08
2023-03-15T03:34:22.394Z,21.88
2023-03-15T03:39:26.847Z,31.67
2023-03-15T03:44:31.294Z,18.00
2023-03-15T03:49:34.276Z,22.17
2023-03-15T03:54:37.400Z,24.95
2023-03-15T03:59:42.128Z,17.60
2023-03-15T04:04:50.139Z,29.13
2023-03-15T04:09:55.130Z,17.50
2023-03-15T04:14:59.454Z,21.63
2023-03-15T04:20:10.681Z,28.33
2023-03-15T04:25:16.087Z,27.48
2023-03-15T04:30:27.142Z,28.88
2023-03-15T04:35:49.811Z,20.08
2023-03-15T04:41:10.851Z,28.67
2023-03-15T04:46:25.181Z,40.08
2023-03-15T04:57:11.802Z,19.55
2023-03-15T05:02:42.463Z,29.98
2023-03-15T05:08:12.298Z,21.30
2023-03-15T05:13:33.935Z,26.10
2023-03-15T05:19:01.304Z,18.47
2023-03-15T05:24:24.673Z,13.63
2023-03-15T05:29:35.782Z,14.98
2023-03-15T05:35:06.344Z,8.13
2023-03-15T05:40:42.424Z,9.30
2023-03-15T05:46:10.504Z,6.72
2023-03-15T05:51:30.767Z,6.28
2023-03-15T05:56:52.963Z,5.45
2023-03-15T06:02:16.239Z,9.48
2023-03-15T06:07:37.735Z,10.45
2023-03-15T06:12:41.864Z,11.48
2023-03-15T06:17:45.264Z,11.10
2023-03-15T06:22:50.168Z,7.60
2023-03-15T06:28:04.946Z,6.20
2023-03-15T06:33:08.230Z,8.63
2023-03-15T06:38:13.733Z,8.93
2023-03-15T06:43:19.571Z,7.80
2023-03-15T06:48:23.455Z,7.67
2023-03-15T06:53:31.214Z,10.13
2023-03-15T06:58:34.151Z,15.00
2023-03-15T07:03:38.999Z,13.40
2023-03-15T07:08:43.186Z,10.10
2023-03-15T07:13:46.797Z,20.20
2023-03-15T07:18:50.367Z,12.60
2023-03-15T07:23:56.073Z,11.75
2023-03-15T07:28:59.267Z,8.85
2023-03-15T07:34:02.059Z,15.50
2023-03-15T07:39:06.317Z,12.15
2023-03-15T07:44:11.110Z,11.80
2023-03-15T07:49:13.961Z,8.52
2023-03-15T07:54:19.351Z,15.77
2023-03-15T07:59:22.279Z,7.30
2023-03-15T08:04:26.680Z,11.40
2023-03-15T08:09:34.922Z,7.90
2023-03-15T08:14:37.702Z,15.80
2023-03-15T08:19:40.961Z,17.35
2023-03-15T08:24:46.240Z,37.58
2023-03-15T08:29:51.885Z,14.55
2023-03-15T08:34:56.283Z,14.82
2023-03-15T08:40:08.296Z,13.45
2023-03-15T08:45:12.259Z,12.35
2023-03-15T08:50:19.384Z,13.13
2023-03-15T08:55:23.730Z,13.73
2023-03-15T09:00:27.693Z,10.85
2023-03-15T09:05:30.906Z,7.20
2023-03-15T09:10:35.393Z,7.47
2023-03-15T09:15:40.356Z,8.27
2023-03-15T09:20:45.521Z,6.47
2023-03-15T09:25:49.845Z,10.20
2023-03-15T09:30:53.107Z,6.68
2023-03-15T09:35:55.979Z,8.88
2023-03-15T09:41:03.830Z,5.10
2023-03-15T09:46:20.443Z,8.13
2023-03-15T09:51:35.568Z,5.88
2023-03-15T09:56:47.255Z,31.27
2023-03-15T10:01:53.806Z,5.35
2023-03-15T10:07:02.431Z,6.07
2023-03-15T10:12:13.188Z,10.40
2023-03-15T10:17:22.390Z,8.55
2023-03-15T10:22:30.588Z,10.88
2023-03-15T10:27:39.906Z,7.53
2023-03-15T10:32:45.411Z,14.13
2023-03-15T10:37:50.319Z,8.45
2023-03-15T10:42:58.822Z,8.07
2023-03-15T10:48:02.331Z,7.97
2023-03-15T10:53:11.487Z,12.00
2023-03-15T10:58:26.357Z,9.43
2023-03-15T11:03:31.818Z,10.13
2023-03-15T11:08:40.404Z,17.88
2023-03-15T11:14:00.558Z,6.15
2023-03-15T11:19:06.592Z,23.85
2023-03-15T11:24:23.815Z,10.55
2023-03-15T11:29:29.895Z,10.07
2023-03-15T11:34:39.582Z,8.05
2023-03-15T11:39:50.323Z,10.05
2023-03-15T11:45:01.394Z,8.82
2023-03-15T11:50:04.460Z,8.32
2023-03-15T11:55:07.974Z,6.95
2023-03-15T12:00:49.751Z,6.32
2023-03-15T12:06:02.401Z,7.13
2023-03-15T12:11:13.599Z,8.38
2023-03-15T12:16:22.952Z,4.35
2023-03-15T12:21:33.602Z,5.18
2023-03-15T12:26:42.914Z,10.77
2023-03-15T12:37:05.567Z,4.15
2023-03-15T12:42:14.018Z,12.77
2023-03-15T12:47:17.470Z,11.30
2023-03-15T12:52:42.426Z,6.07
2023-03-15T12:57:52.412Z,5.70
2023-03-15T13:03:07.008Z,4.40
2023-03-15T13:08:22.141Z,5.35
2023-03-15T13:13:37.033Z,3.80
2023-03-15T13:18:49.519Z,6.82
2023-03-15T13:23:59.504Z,4.35
2023-03-15T13:29:06.325Z,5.50
2023-03-15T13:34:16.132Z,6.72
2023-03-15T13:39:24.324Z,8.60
2023-03-15T13:44:28.360Z,10.10
2023-03-15T13:49:33.063Z,15.00
2023-03-15T13:54:37.482Z,9.50
2023-03-15T13:59:48.615Z,6.68
2023-03-15T14:04:57.060Z,8.70
2023-03-15T14:10:28.716Z,6.35
2023-03-15T14:15:39.235Z,8.25
2023-03-15T14:20:44.196Z,8.45
2023-03-15T14:25:53.972Z,5.85
2023-03-15T14:30:58.932Z,13.73
2023-03-15T14:36:03.860Z,8.93
2023-03-15T14:41:21.049Z,7.63
2023-03-15T14:46:24.437Z,10.30
2023-03-15T14:51:31.686Z,6.43
2023-03-15T15:01:47.625Z,14.50
2023-03-15T15:06:54.408Z,8.48
2023-03-15T15:11:58.694Z,9.00
2023-03-15T15:17:01.581Z,4.97
2023-03-15T15:22:04.619Z,13.73
2023-03-15T15:27:10.673Z,10.40
2023-03-15T15:32:13.425Z,10.63
2023-03-15T15:37:17.357Z,7.18
2023-03-15T15:42:21.489Z,5.78
2023-03-15T15:47:24.572Z,7.40
2023-03-15T15:52:30.117Z,5.35
2023-03-15T15:57:34.620Z,4.88
2023-03-15T16:02:41.403Z,5.50
2023-03-15T16:07:46.386Z,6.97
2023-03-15T16:12:54.468Z,10.73
2023-03-15T16:18:02.189Z,4.70
2023-03-15T16:23:06.677Z,12.38
2023-03-15T16:28:11.557Z,54.67
2023-03-15T16:33:16.137Z,11.10
2023-03-15T16:38:24.477Z,8.00
2023-03-15T16:43:29.257Z,28.15
2023-03-15T16:48:32.064Z,9.20
2023-03-15T16:53:37.284Z,9.52
2023-03-15T16:58:42.693Z,10.02
2023-03-15T17:03:47.700Z,7.07
2023-03-15T17:08:51.178Z,10.48
2023-03-15T17:13:55.649Z,13.30
2023-03-15T17:18:58.505Z,23.13
2023-03-15T17:24:01.390Z,14.43
2023-03-15T17:29:06.935Z,9.43
2023-03-15T17:34:10.498Z,6.95
2023-03-15T17:39:17.001Z,11.65
2023-03-15T17:44:21.318Z,12.20
2023-03-15T17:49:26.385Z,10.80
2023-03-15T17:54:29.201Z,16.05
2023-03-15T17:59:33.394Z,17.55
2023-03-15T18:04:36.717Z,11.07
2023-03-15T18:09:39.804Z,16.88
2023-03-15T18:14:44.778Z,15.60
2023-03-15T18:19:47.674Z,35.40
2023-03-15T18:24:50.591Z,35.47
2023-03-15T18:29:54.855Z,28.10
2023-03-15T18:34:57.694Z,29.00
2023-03-15T18:40:00.752Z,31.70
2023-03-15T18:45:05.601Z,30.50
2023-03-15T18:50:12.761Z,28.00
2023-03-15T18:55:18.247Z,31.92
2023-03-15T19:00:26.178Z,35.17
2023-03-15T19:05:31.139Z,33.28
2023-03-15T19:10:34.030Z,24.42
2023-03-15T19:15:40.769Z,25.27
2023-03-15T19:20:43.600Z,39.08
2023-03-15T19:25:47.175Z,36.05
2023-03-15T19:30:51.855Z,51.00
2023-03-15T19:35:54.796Z,39.78
2023-03-15T19:40:58.801Z,37.33
2023-03-15T19:46:07.933Z,34.67
2023-03-15T19:51:11.379Z,39.92
2023-03-15T19:56:14.446Z,29.25
2023-03-15T20:01:20.665Z,35.28
2023-03-15T20:06:26.006Z,36.00
2023-03-15T20:11:29.439Z,33.70
2023-03-15T20:16:33.944Z,28.20
2023-03-15T20:21:37.464Z,31.45
2023-03-15T20:26:40.859Z,29.55
2023-03-15T20:31:46.894Z,32.38
2023-03-15T20:36:52.671Z,18.63
2023-03-15T20:41:55.798Z,28.08
2023-03-15T20:47:01.491Z,38.63
2023-03-15T20:52:05.157Z,27.33
2023-03-15T20:57:09.889Z,30.30
2023-03-15T21:02:14.849Z,32.03
2023-03-15T21:07:17.740Z,42.47
2023-03-15T21:12:20.743Z,63.80
2023-03-15T21:17:25.271Z,23.90
2023-03-15T21:22:28.117Z,26.65
2023-03-15T21:27:33.059Z,23.30
2023-03-15T21:32:38.937Z,34.95
2023-03-15T21:37:41.818Z,27.42
2023-03-15T21:42:47.780Z,35.17
2023-03-15T21:47:52.630Z,41.90
2023-03-15T21:52:55.494Z,46.50
2023-03-15T21:57:58.285Z,39.15
2023-03-15T22:03:02.447Z,30.85
2023-03-15T22:08:05.164Z,35.75
2023-03-15T22:13:08.033Z,32.95
2023-03-15T22:18:12.310Z,37.50
2023-03-15T22:23:15.203Z,40.28
2023-03-15T22:28:18.120Z,35.40
2023-03-15T22:33:22.883Z,29.75
2023-03-15T22:38:26.838Z,30.80
2023-03-15T22:43:29.630Z,36.08
2023-03-15T22:48:34.604Z,39.92
2023-03-15T22:53:37.930Z,36.72
2023-03-15T22:58:40.785Z,30.02
2023-03-15T23:03:44.873Z,32.13
2023-03-15T23:08:48.006Z,31.95
2023-03-15T23:13:50.914Z,39.67
2023-03-15T23:18:55.176Z,31.05
2023-03-15T23:23:58.250Z,39.33
2023-03-15T23:29:01.060Z,30.42
2023-03-15T23:34:05.977Z,26.20
2023-03-15T23:39:09.268Z,18.83
2023-03-15T23:44:12.258Z,20.40
2023-03-15T23:49:16.440Z,22.98
2023-03-15T23:54:19.348Z,23.67
2023-03-15T23:59:22.530Z,23.10
